White Oak, Georgia
Current Conditions -  °F | °C
As of 3:35 AM on Friday 24 Oct 2014 (Local Time) from KBQK Reporting Station
Overcast Overcast  
Wind Chill: 48°   Ceiling: 700
Heat Index: 48°   Visibility: 1mi
Dew Point: 46°   Wind: 0mph
Humidity: 93%   Direction: NA
Pressure: 30.02"   Gusts: NA
Location:  31.03°N, 81.73°W
Report Text: KBQK 240735Z AUTO 00000KT 1SM VV007 09/08 A3002 RMK AO1 VIS 1/2V5
Loading
Personal Weather Stations






























Interactive Weather Map
Tropical Storm Tracking
New forecast layout! Learn more

10-Day Weather Forecast

Advertisements
Track Severe Weather on mobile